createdAt,value
2023-04-27T00:01:35.280Z,3.80
2023-04-27T00:04:07.326Z,4.10
2023-04-27T00:06:37.758Z,3.80
2023-04-27T00:09:08.074Z,3.30
2023-04-27T00:11:38.640Z,4.30
2023-04-27T00:14:08.450Z,4.30
2023-04-27T00:16:38.652Z,3.40
2023-04-27T00:19:09.581Z,4.00
2023-04-27T00:21:39.399Z,3.70
2023-04-27T00:24:08.735Z,3.70
2023-04-27T00:26:38.624Z,4.60
2023-04-27T00:29:10.748Z,4.30
2023-04-27T00:31:42.529Z,3.50
2023-04-27T00:34:13.287Z,4.40
2023-04-27T00:36:42.916Z,3.60
2023-04-27T00:39:13.060Z,4.30
2023-04-27T00:41:43.404Z,3.80
2023-04-27T00:44:25.220Z,4.20
2023-04-27T00:46:56.230Z,3.70
2023-04-27T00:49:27.384Z,3.70
2023-04-27T00:51:57.707Z,3.70
2023-04-27T00:54:27.964Z,4.40
2023-04-27T00:56:59.924Z,3.80
2023-04-27T00:59:30.078Z,3.70
2023-04-27T01:02:03.042Z,4.30
2023-04-27T01:04:32.758Z,3.80
2023-04-27T01:07:03.296Z,3.80
2023-04-27T01:09:33.981Z,3.20
2023-04-27T01:12:08.014Z,3.60
2023-04-27T01:14:37.481Z,3.30
2023-04-27T01:17:09.741Z,3.60
2023-04-27T01:19:42.839Z,3.30
2023-04-27T01:22:13.030Z,3.70
2023-04-27T01:24:42.271Z,3.20
2023-04-27T01:27:13.185Z,2.80
2023-04-27T01:29:46.300Z,3.20
2023-04-27T01:32:16.056Z,3.60
2023-04-27T01:34:46.039Z,2.80
2023-04-27T01:37:16.212Z,3.40
2023-04-27T01:39:46.140Z,3.70
2023-04-27T01:42:16.078Z,4.40
2023-04-27T01:44:46.059Z,4.50
2023-04-27T01:47:19.792Z,3.10
2023-04-27T01:49:49.647Z,4.10
2023-04-27T01:52:24.332Z,3.80
2023-04-27T01:54:54.838Z,3.30
2023-04-27T01:57:25.850Z,3.80
2023-04-27T01:59:57.853Z,2.60
2023-04-27T02:02:27.762Z,3.50
2023-04-27T02:04:58.106Z,2.30
2023-04-27T02:07:28.950Z,2.80
2023-04-27T02:09:59.471Z,3.20
2023-04-27T02:12:29.496Z,3.50
2023-04-27T02:14:59.488Z,3.40
2023-04-27T02:17:31.995Z,3.50
2023-04-27T02:20:02.421Z,2.90
2023-04-27T02:22:32.922Z,3.30
2023-04-27T02:25:02.948Z,3.00
2023-04-27T02:27:33.695Z,3.80
2023-04-27T02:30:12.535Z,3.20
2023-04-27T02:32:44.256Z,2.90
2023-04-27T02:35:14.479Z,3.00
2023-04-27T02:37:44.553Z,3.00
2023-04-27T02:40:18.205Z,3.50
2023-04-27T02:42:48.175Z,2.90
2023-04-27T02:45:17.293Z,3.30
2023-04-27T02:47:48.281Z,3.50
2023-04-27T02:50:17.959Z,3.40
2023-04-27T02:52:48.278Z,2.80
2023-04-27T02:55:22.051Z,3.00
2023-04-27T02:57:51.890Z,2.90
2023-04-27T03:00:21.693Z,3.40
2023-04-27T03:02:54.015Z,2.90
2023-04-27T03:05:28.999Z,3.40
2023-04-27T03:08:00.053Z,3.60
2023-04-27T03:10:29.191Z,3.00
2023-04-27T03:13:00.171Z,3.50
2023-04-27T03:15:31.554Z,2.80
2023-04-27T03:18:00.781Z,2.00
2023-04-27T03:20:30.195Z,3.10
2023-04-27T03:22:59.720Z,2.60
2023-04-27T03:25:30.466Z,3.10
2023-04-27T03:28:00.268Z,3.30
2023-04-27T03:30:30.664Z,3.60
2023-04-27T03:33:00.917Z,2.90
2023-04-27T03:35:32.359Z,3.60
2023-04-27T03:38:06.832Z,3.80
2023-04-27T03:40:36.541Z,3.50
2023-04-27T03:43:07.349Z,2.90
2023-04-27T03:45:37.197Z,3.10
2023-04-27T03:48:07.961Z,3.10
2023-04-27T03:50:38.652Z,3.30
2023-04-27T03:53:09.093Z,3.50
2023-04-27T03:55:42.719Z,2.90
2023-04-27T03:58:12.292Z,3.10
2023-04-27T04:00:55.254Z,3.50
2023-04-27T04:03:25.260Z,3.20
2023-04-27T04:05:55.487Z,4.10
2023-04-27T04:08:24.689Z,3.00
2023-04-27T04:10:55.133Z,3.70
2023-04-27T04:13:24.294Z,3.30
2023-04-27T04:16:07.137Z,3.20
2023-04-27T04:18:37.919Z,2.70
2023-04-27T04:21:13.746Z,2.20
2023-04-27T04:23:46.098Z,3.30
2023-04-27T04:26:17.235Z,3.90
2023-04-27T04:28:46.914Z,3.10
2023-04-27T04:31:18.636Z,2.80
2023-04-27T04:33:47.863Z,3.90
2023-04-27T04:36:18.907Z,3.60
2023-04-27T04:38:55.471Z,3.20
2023-04-27T04:41:26.906Z,4.00
2023-04-27T04:43:56.448Z,4.00
2023-04-27T04:46:26.299Z,3.10
2023-04-27T04:48:56.083Z,3.10
2023-04-27T04:51:27.845Z,2.60
2023-04-27T04:53:57.177Z,3.00
2023-04-27T04:56:28.316Z,2.40
2023-04-27T04:58:58.256Z,2.80
2023-04-27T05:01:29.055Z,2.80
2023-04-27T05:04:01.632Z,2.10
2023-04-27T05:06:32.668Z,2.30
2023-04-27T05:09:03.312Z,2.70
2023-04-27T05:11:33.035Z,2.90
2023-04-27T05:14:03.018Z,2.70
2023-04-27T05:16:32.911Z,2.40
2023-04-27T05:19:02.782Z,3.00
2023-04-27T05:21:34.293Z,2.90
2023-04-27T05:24:05.515Z,2.10
2023-04-27T05:26:35.198Z,2.90
2023-04-27T05:29:05.150Z,3.10
2023-04-27T05:31:35.269Z,2.90
2023-04-27T05:34:05.111Z,2.60
2023-04-27T05:36:34.104Z,2.50
2023-04-27T05:39:05.435Z,3.40
2023-04-27T05:41:35.476Z,2.90
2023-04-27T05:44:07.528Z,2.80
2023-04-27T05:46:38.587Z,3.40
2023-04-27T05:49:08.708Z,2.70
2023-04-27T05:51:39.321Z,2.80
2023-04-27T05:54:09.147Z,2.30
2023-04-27T05:56:39.388Z,2.50
2023-04-27T05:59:10.196Z,2.20
2023-04-27T06:01:39.875Z,2.90
2023-04-27T06:04:09.566Z,2.50
2023-04-27T06:06:40.949Z,2.70
2023-04-27T06:09:11.038Z,1.50
2023-04-27T06:11:40.545Z,2.50
2023-04-27T06:14:11.105Z,2.50
2023-04-27T06:16:41.311Z,1.90
2023-04-27T06:19:12.014Z,2.00
2023-04-27T06:21:42.617Z,2.40
2023-04-27T06:24:12.568Z,2.20
2023-04-27T06:26:41.463Z,2.20
2023-04-27T06:29:10.649Z,2.40
2023-04-27T06:31:40.796Z,2.20
2023-04-27T06:34:10.479Z,2.10
2023-04-27T06:36:39.717Z,2.10
2023-04-27T06:39:09.781Z,2.30
2023-04-27T06:41:40.330Z,2.30
2023-04-27T06:44:17.424Z,2.60
2023-04-27T06:46:47.347Z,1.80
2023-04-27T06:49:16.515Z,2.30
2023-04-27T06:51:47.137Z,2.10
2023-04-27T06:54:17.033Z,2.20
2023-04-27T06:56:46.869Z,1.90
2023-04-27T06:59:17.118Z,1.90
2023-04-27T07:01:49.082Z,2.30
2023-04-27T07:04:24.329Z,2.90
2023-04-27T07:06:53.997Z,2.30
2023-04-27T07:09:27.721Z,1.70
2023-04-27T07:11:59.664Z,1.90
2023-04-27T07:14:29.820Z,2.70
2023-04-27T07:17:00.837Z,2.40
2023-04-27T07:19:31.775Z,2.20
2023-04-27T07:22:03.214Z,2.20
2023-04-27T07:24:33.640Z,1.80
2023-04-27T07:27:05.188Z,2.50
2023-04-27T07:29:34.799Z,2.20
2023-04-27T07:32:07.553Z,1.80
2023-04-27T07:37:24.029Z,2.70
2023-04-27T07:39:56.209Z,2.00
2023-04-27T07:42:26.836Z,2.00
2023-04-27T07:45:02.900Z,2.10
2023-04-27T07:47:34.722Z,2.20
2023-04-27T07:50:09.804Z,2.60
2023-04-27T07:52:43.266Z,2.30
2023-04-27T07:55:14.620Z,2.40
2023-04-27T07:57:43.761Z,2.30
2023-04-27T08:00:14.348Z,2.70
2023-04-27T08:02:44.395Z,2.70
2023-04-27T08:05:17.672Z,2.60
2023-04-27T08:07:48.105Z,2.10
2023-04-27T08:10:19.019Z,2.40
2023-04-27T08:12:50.166Z,2.20
2023-04-27T08:15:21.933Z,2.30
2023-04-27T08:17:55.258Z,2.10
2023-04-27T08:20:25.881Z,2.20
2023-04-27T08:22:55.253Z,2.30
2023-04-27T08:25:26.219Z,2.20
2023-04-27T08:27:58.992Z,2.40
2023-04-27T08:30:30.710Z,2.60
2023-04-27T08:33:02.240Z,2.20
2023-04-27T08:35:34.869Z,2.40
2023-04-27T08:38:07.963Z,1.90
2023-04-27T08:43:16.763Z,2.20
2023-04-27T08:45:51.522Z,1.60
2023-04-27T08:48:23.178Z,2.10
2023-04-27T08:50:58.392Z,2.00
2023-04-27T08:53:31.139Z,2.10
2023-04-27T08:56:03.074Z,1.70
2023-04-27T08:58:39.090Z,2.20
2023-04-27T09:01:10.162Z,2.60
2023-04-27T09:03:43.206Z,1.90
2023-04-27T09:06:17.129Z,2.10
2023-04-27T09:08:49.379Z,2.30
2023-04-27T09:11:37.017Z,1.90
2023-04-27T09:14:18.691Z,1.90
2023-04-27T09:17:00.446Z,1.90
2023-04-27T09:19:35.400Z,2.10
2023-04-27T09:22:07.695Z,2.00
2023-04-27T09:24:39.560Z,1.90
2023-04-27T09:27:10.284Z,2.40
2023-04-27T09:29:40.888Z,2.30
2023-04-27T09:32:21.711Z,2.20
2023-04-27T09:34:52.048Z,2.00
2023-04-27T09:37:23.827Z,2.30
2023-04-27T09:39:54.492Z,2.60
2023-04-27T09:42:33.068Z,2.40
2023-04-27T09:45:07.510Z,2.10
2023-04-27T09:47:38.160Z,2.50
2023-04-27T09:50:10.005Z,2.20
2023-04-27T09:52:40.106Z,2.60
2023-04-27T09:55:14.335Z,2.30
2023-04-27T09:58:03.349Z,2.40
2023-04-27T10:01:21.045Z,2.00
2023-04-27T10:04:07.429Z,2.10
2023-04-27T10:07:06.808Z,2.50
2023-04-27T10:09:44.165Z,1.90
2023-04-27T10:12:28.072Z,2.90
2023-04-27T10:15:12.584Z,1.90
2023-04-27T10:17:53.450Z,1.90
2023-04-27T10:20:38.115Z,2.00
2023-04-27T10:23:08.285Z,2.40
2023-04-27T10:25:42.413Z,2.20
2023-04-27T10:28:18.896Z,2.20
2023-04-27T10:30:50.387Z,2.50
2023-04-27T10:33:30.977Z,2.40
2023-04-27T10:36:00.787Z,2.20
2023-04-27T10:38:33.486Z,2.20
2023-04-27T10:41:07.554Z,1.90
2023-04-27T10:43:36.775Z,2.00
2023-04-27T10:46:17.048Z,2.20
2023-04-27T10:48:48.525Z,2.20
2023-04-27T10:51:18.527Z,2.10
2023-04-27T10:53:55.799Z,2.10
2023-04-27T10:56:27.167Z,2.20
2023-04-27T10:59:02.602Z,2.10
2023-04-27T11:01:32.552Z,2.20
2023-04-27T11:04:04.304Z,2.50
2023-04-27T11:06:44.406Z,2.40
2023-04-27T11:09:15.244Z,2.00
2023-04-27T11:11:46.610Z,2.10
2023-04-27T11:14:21.828Z,2.10
2023-04-27T11:16:52.689Z,2.00
2023-04-27T11:19:22.993Z,2.90
2023-04-27T11:22:07.248Z,2.10
2023-04-27T11:24:51.476Z,2.00
2023-04-27T11:27:25.673Z,2.00
2023-04-27T11:29:56.116Z,2.30
2023-04-27T11:32:26.531Z,2.00
2023-04-27T11:34:59.677Z,2.10
2023-04-27T11:40:09.327Z,1.70
2023-04-27T11:42:43.920Z,2.70
2023-04-27T11:45:14.233Z,2.20
2023-04-27T11:47:48.249Z,2.40
2023-04-27T11:50:25.010Z,2.50
2023-04-27T11:52:59.024Z,2.60
2023-04-27T11:55:29.185Z,2.20
2023-04-27T11:58:00.429Z,2.30
2023-04-27T12:00:29.908Z,2.30
2023-04-27T12:03:00.618Z,2.00
2023-04-27T12:05:32.308Z,2.00
2023-04-27T12:08:02.664Z,1.80
2023-04-27T12:10:32.652Z,1.40
2023-04-27T12:13:02.604Z,1.80
2023-04-27T12:15:32.227Z,2.90
2023-04-27T12:18:03.406Z,1.80
2023-04-27T12:20:35.264Z,2.10
2023-04-27T12:23:05.232Z,2.10
2023-04-27T12:25:36.859Z,2.50
2023-04-27T12:28:08.822Z,1.70
2023-04-27T12:30:38.716Z,1.80
2023-04-27T12:33:11.399Z,2.00
2023-04-27T12:35:40.788Z,2.10
2023-04-27T12:38:10.529Z,1.80
2023-04-27T12:40:40.544Z,1.90
2023-04-27T12:43:10.699Z,1.80
2023-04-27T12:45:40.309Z,3.70
2023-04-27T12:48:10.575Z,1.60
2023-04-27T12:50:39.997Z,1.60
2023-04-27T12:53:08.811Z,2.40
2023-04-27T12:55:38.345Z,2.00
2023-04-27T12:58:08.145Z,2.30
2023-04-27T13:00:38.975Z,2.00
2023-04-27T13:03:08.119Z,1.80
2023-04-27T13:05:38.088Z,2.50
2023-04-27T13:08:11.507Z,3.10
2023-04-27T13:10:42.512Z,2.30
2023-04-27T13:13:11.981Z,2.00
2023-04-27T13:15:41.791Z,1.70
2023-04-27T13:18:11.291Z,2.10
2023-04-27T13:20:41.257Z,2.20
2023-04-27T13:23:12.064Z,1.90
2023-04-27T13:25:42.294Z,2.10
2023-04-27T13:28:12.956Z,1.70
2023-04-27T13:30:42.486Z,2.60
2023-04-27T13:33:23.257Z,2.80
2023-04-27T13:35:54.604Z,2.20
2023-04-27T13:38:24.578Z,2.00
2023-04-27T13:40:55.137Z,2.40
2023-04-27T13:43:31.487Z,2.40
2023-04-27T13:46:02.779Z,2.20
2023-04-27T13:48:33.062Z,2.00
2023-04-27T13:51:04.220Z,1.90
2023-04-27T13:53:34.045Z,2.20
2023-04-27T13:56:04.054Z,1.70
2023-04-27T13:58:34.863Z,2.00
2023-04-27T14:01:04.252Z,1.90
2023-04-27T14:03:34.375Z,2.10
2023-04-27T14:06:09.624Z,2.30
2023-04-27T14:08:40.973Z,1.90
2023-04-27T14:11:15.358Z,2.10
2023-04-27T14:13:44.852Z,2.10
2023-04-27T14:16:15.221Z,2.40
2023-04-27T14:18:45.182Z,2.00
2023-04-27T14:21:17.742Z,1.70
2023-04-27T14:23:48.178Z,1.80
2023-04-27T14:26:18.485Z,1.80
2023-04-27T14:28:47.633Z,1.90
2023-04-27T14:31:18.838Z,1.80
2023-04-27T14:33:48.650Z,3.40
2023-04-27T14:36:21.920Z,2.10
2023-04-27T14:38:51.354Z,2.20
2023-04-27T14:41:24.948Z,1.90
2023-04-27T14:43:56.608Z,1.60
2023-04-27T14:46:26.848Z,1.70
2023-04-27T14:48:57.104Z,1.70
2023-04-27T14:51:29.210Z,1.90
2023-04-27T14:53:59.671Z,2.20
2023-04-27T14:56:31.003Z,2.50
2023-04-27T14:59:01.965Z,2.20
2023-04-27T15:01:34.239Z,2.40
2023-04-27T15:04:13.350Z,2.00
2023-04-27T15:06:47.428Z,2.00
2023-04-27T15:09:20.632Z,2.20
2023-04-27T15:11:50.572Z,2.40
2023-04-27T15:14:21.555Z,1.90
2023-04-27T15:16:52.426Z,2.00
2023-04-27T15:19:21.937Z,2.00
2023-04-27T15:21:51.873Z,2.10
2023-04-27T15:24:21.823Z,2.50
2023-04-27T15:26:51.964Z,1.80
2023-04-27T15:29:22.692Z,2.30
2023-04-27T15:31:52.832Z,2.20
2023-04-27T15:34:22.931Z,1.80
2023-04-27T15:36:55.501Z,1.80
2023-04-27T15:39:25.147Z,2.00
2023-04-27T15:41:56.344Z,1.80
2023-04-27T15:44:26.030Z,2.00
2023-04-27T15:46:55.969Z,1.90
2023-04-27T15:49:25.625Z,2.20
2023-04-27T15:51:55.880Z,1.90
2023-04-27T15:54:26.571Z,1.90
2023-04-27T15:56:56.295Z,1.80
2023-04-27T15:59:25.663Z,1.80
2023-04-27T16:01:55.727Z,2.20
2023-04-27T16:04:25.335Z,2.10
2023-04-27T16:06:54.745Z,2.10
2023-04-27T16:09:26.290Z,2.30
2023-04-27T16:11:55.845Z,2.70
2023-04-27T16:14:26.197Z,2.00
2023-04-27T16:17:01.091Z,2.30
2023-04-27T16:19:31.476Z,2.20
2023-04-27T16:22:04.545Z,1.80
2023-04-27T16:24:35.268Z,1.90
2023-04-27T16:27:07.688Z,2.10
2023-04-27T16:29:37.638Z,1.80
2023-04-27T16:32:07.811Z,3.20
2023-04-27T16:34:38.610Z,2.00
2023-04-27T16:37:07.606Z,2.90
2023-04-27T16:39:37.881Z,2.10
2023-04-27T16:42:07.794Z,2.30
2023-04-27T16:44:39.238Z,2.30
2023-04-27T16:47:10.296Z,1.90
2023-04-27T16:49:46.359Z,2.30
2023-04-27T16:52:17.894Z,1.80
2023-04-27T16:54:51.590Z,2.20
2023-04-27T16:57:22.441Z,2.30
2023-04-27T16:59:52.757Z,2.50
2023-04-27T17:02:25.562Z,2.50
2023-04-27T17:04:56.473Z,2.40
2023-04-27T17:07:28.932Z,2.70
2023-04-27T17:10:01.816Z,2.60
2023-04-27T17:12:33.812Z,2.40
2023-04-27T17:15:03.405Z,2.70
2023-04-27T17:17:34.520Z,2.50
2023-04-27T17:20:05.350Z,3.10
2023-04-27T17:25:08.232Z,2.70
2023-04-27T17:27:40.551Z,2.50
2023-04-27T17:30:10.467Z,2.60
2023-04-27T17:32:42.487Z,2.80
2023-04-27T17:35:11.979Z,2.60
2023-04-27T17:37:41.637Z,3.00
2023-04-27T17:40:16.902Z,3.20
2023-04-27T17:42:47.736Z,3.10
2023-04-27T17:45:17.456Z,2.80
2023-04-27T17:47:47.670Z,3.30
2023-04-27T17:50:18.054Z,3.20
2023-04-27T17:52:51.593Z,3.00
2023-04-27T17:55:24.177Z,2.70
2023-04-27T17:57:54.030Z,3.20
2023-04-27T18:00:24.340Z,3.00
2023-04-27T18:02:53.982Z,2.90
2023-04-27T18:05:27.913Z,3.10
2023-04-27T18:07:57.982Z,3.40
2023-04-27T18:10:29.981Z,2.90
2023-04-27T18:13:02.063Z,3.40
2023-04-27T18:15:31.700Z,3.10
2023-04-27T18:18:03.804Z,3.00
2023-04-27T18:20:33.053Z,2.80
2023-04-27T18:23:02.507Z,4.10
2023-04-27T18:25:32.793Z,3.80
2023-04-27T18:28:05.680Z,3.70
2023-04-27T18:30:36.689Z,3.20
2023-04-27T18:33:06.526Z,3.90
2023-04-27T18:35:35.912Z,3.60
2023-04-27T18:38:06.451Z,3.40
2023-04-27T18:40:36.853Z,3.50
2023-04-27T18:43:08.041Z,3.20
2023-04-27T18:45:37.463Z,3.00
2023-04-27T18:48:07.558Z,3.20
2023-04-27T18:50:38.717Z,3.60
2023-04-27T18:53:09.006Z,3.10
2023-04-27T18:55:40.123Z,3.20
2023-04-27T18:58:09.029Z,2.70
2023-04-27T19:00:39.161Z,3.00
2023-04-27T19:03:08.855Z,3.00
2023-04-27T19:05:43.449Z,3.30
2023-04-27T19:08:13.036Z,3.60
2023-04-27T19:10:45.525Z,3.50
2023-04-27T19:13:15.972Z,3.50
2023-04-27T19:15:45.334Z,3.70
2023-04-27T19:18:15.436Z,3.50
2023-04-27T19:20:45.550Z,4.10
2023-04-27T19:23:17.519Z,4.20
2023-04-27T19:25:49.661Z,4.30
2023-04-27T19:28:20.260Z,4.30
2023-04-27T19:30:52.029Z,4.50
2023-04-27T19:33:22.381Z,4.70
2023-04-27T19:35:52.930Z,4.80
2023-04-27T19:38:24.208Z,5.30
2023-04-27T19:40:54.593Z,5.20
2023-04-27T19:43:24.961Z,4.80
2023-04-27T19:45:54.843Z,4.70
2023-04-27T19:48:25.268Z,5.20
2023-04-27T19:50:55.404Z,5.40
2023-04-27T19:53:32.415Z,5.00
2023-04-27T19:56:03.236Z,4.80
2023-04-27T19:58:36.146Z,5.10
2023-04-27T20:01:07.837Z,4.90
2023-04-27T20:03:39.289Z,6.10
2023-04-27T20:08:41.817Z,5.10
2023-04-27T20:11:11.406Z,6.20
2023-04-27T20:13:42.473Z,5.30
2023-04-27T20:16:12.459Z,4.80
2023-04-27T20:18:45.536Z,4.80
2023-04-27T20:21:16.711Z,4.40
2023-04-27T20:23:49.859Z,4.20
2023-04-27T20:26:20.625Z,4.50
2023-04-27T20:28:51.685Z,4.30
2023-04-27T20:31:22.550Z,4.10
2023-04-27T20:33:51.971Z,4.20
2023-04-27T20:36:23.779Z,4.50
2023-04-27T20:38:53.679Z,4.20
2023-04-27T20:41:24.267Z,4.30
2023-04-27T20:43:54.824Z,3.80
2023-04-27T20:46:24.935Z,3.70
2023-04-27T20:48:55.671Z,3.60
2023-04-27T20:51:26.819Z,3.30
2023-04-27T20:53:57.600Z,3.60
2023-04-27T20:56:31.164Z,3.80
2023-04-27T20:59:01.077Z,5.00
2023-04-27T21:01:30.210Z,4.50
2023-04-27T21:04:01.805Z,4.50
2023-04-27T21:06:32.964Z,4.30
2023-04-27T21:09:02.489Z,4.80
2023-04-27T21:11:32.081Z,4.10
2023-04-27T21:14:01.593Z,3.90
2023-04-27T21:16:32.002Z,4.10
2023-04-27T21:19:01.785Z,4.40
2023-04-27T21:21:31.768Z,4.60
2023-04-27T21:24:08.223Z,4.00
2023-04-27T21:26:38.342Z,4.90
2023-04-27T21:29:08.812Z,4.70
2023-04-27T21:31:38.561Z,4.90
2023-04-27T21:34:09.239Z,4.30
2023-04-27T21:36:38.983Z,4.70
2023-04-27T21:39:09.304Z,5.00
2023-04-27T21:41:39.882Z,4.70
2023-04-27T21:44:10.880Z,4.50
2023-04-27T21:46:41.406Z,5.10
2023-04-27T21:49:11.229Z,4.90
2023-04-27T21:51:41.949Z,5.30
2023-04-27T21:54:12.102Z,5.20
2023-04-27T21:56:43.101Z,4.60
2023-04-27T21:59:12.963Z,5.10
2023-04-27T22:01:43.478Z,4.90
2023-04-27T22:04:17.264Z,5.60
2023-04-27T22:06:46.919Z,5.40
2023-04-27T22:09:20.633Z,5.60
2023-04-27T22:11:50.140Z,5.00
2023-04-27T22:14:20.275Z,4.80
2023-04-27T22:16:50.706Z,5.20
2023-04-27T22:19:22.019Z,4.50
2023-04-27T22:21:52.655Z,4.70
2023-04-27T22:24:23.751Z,5.00
2023-04-27T22:26:53.765Z,5.20
2023-04-27T22:29:23.232Z,5.20
2023-04-27T22:31:52.792Z,4.10
2023-04-27T22:34:22.534Z,5.70
2023-04-27T22:36:53.221Z,5.50
2023-04-27T22:39:23.332Z,5.00
2023-04-27T22:41:54.106Z,5.50
2023-04-27T22:44:24.474Z,5.50
2023-04-27T22:46:55.875Z,5.40
2023-04-27T22:49:25.548Z,5.20
2023-04-27T22:51:58.072Z,5.00
2023-04-27T22:54:29.852Z,4.80
2023-04-27T22:57:01.140Z,5.10
2023-04-27T22:59:31.747Z,5.10
2023-04-27T23:02:01.346Z,5.10
2023-04-27T23:04:34.153Z,4.20
2023-04-27T23:07:10.391Z,4.50
2023-04-27T23:09:43.235Z,4.30
2023-04-27T23:12:16.195Z,3.60
2023-04-27T23:14:45.529Z,4.30
2023-04-27T23:17:15.894Z,4.50
2023-04-27T23:19:44.970Z,4.60
2023-04-27T23:22:16.979Z,5.10
2023-04-27T23:24:47.372Z,5.30
2023-04-27T23:27:17.187Z,4.10
2023-04-27T23:29:47.047Z,5.40
2023-04-27T23:32:17.699Z,5.20
2023-04-27T23:34:48.033Z,4.60
2023-04-27T23:37:18.749Z,4.20
2023-04-27T23:39:49.183Z,4.30
2023-04-27T23:42:22.950Z,4.90
2023-04-27T23:44:53.482Z,4.80
2023-04-27T23:47:23.507Z,4.70
2023-04-27T23:49:52.405Z,4.40
2023-04-27T23:52:22.575Z,4.10
2023-04-27T23:54:52.895Z,4.10
2023-04-27T23:57:21.806Z,5.00
2023-04-27T23:59:51.081Z,4.40
